sensor_id;sensor_type;location;lat;lon;timestamp;pressure;altitude;pressure_sealevel;temperature;humidity
61805;BME280;47725;47.912;7.356;2023-04-26T00:01:18;99373.51;;;10.55;66.32
61805;BME280;47725;47.912;7.356;2023-04-26T00:05:18;99376.98;;;10.55;66.36
61805;BME280;47725;47.912;7.356;2023-04-26T00:09:18;99379.42;;;10.55;66.25
61805;BME280;47725;47.912;7.356;2023-04-26T00:13:18;99381.41;;;10.56;66.28
61805;BME280;47725;47.912;7.356;2023-04-26T00:17:18;99382.81;;;10.56;66.26
61805;BME280;47725;47.912;7.356;2023-04-26T00:21:18;99381.94;;;10.57;66.13
61805;BME280;47725;47.912;7.356;2023-04-26T00:25:18;99380.97;;;10.57;66.35
61805;BME280;47725;47.912;7.356;2023-04-26T00:29:18;99378.27;;;10.57;66.37
61805;BME280;47725;47.912;7.356;2023-04-26T00:33:18;99376.09;;;10.57;66.35
61805;BME280;47725;47.912;7.356;2023-04-26T00:37:18;99373.42;;;10.57;66.37
61805;BME280;47725;47.912;7.356;2023-04-26T00:41:18;99372.06;;;10.58;66.37
61805;BME280;47725;47.912;7.356;2023-04-26T00:45:18;99370.53;;;10.58;66.36
61805;BME280;47725;47.912;7.356;2023-04-26T00:49:18;99369.14;;;10.58;66.32
61805;BME280;47725;47.912;7.356;2023-04-26T00:53:18;99366.63;;;10.57;66.47
61805;BME280;47725;47.912;7.356;2023-04-26T00:57:18;99366.69;;;10.55;66.48
61805;BME280;47725;47.912;7.356;2023-04-26T01:01:18;99367.01;;;10.55;66.42
61805;BME280;47725;47.912;7.356;2023-04-26T01:05:18;99367.65;;;10.53;66.48
61805;BME280;47725;47.912;7.356;2023-04-26T01:09:18;99368.25;;;10.51;66.49
61805;BME280;47725;47.912;7.356;2023-04-26T01:13:18;99369.31;;;10.49;66.66
61805;BME280;47725;47.912;7.356;2023-04-26T01:17:18;99370.20;;;10.47;66.70
61805;BME280;47725;47.912;7.356;2023-04-26T01:21:20;99369.42;;;10.46;66.62
61805;BME280;47725;47.912;7.356;2023-04-26T01:25:18;99366.99;;;10.45;66.62
61805;BME280;47725;47.912;7.356;2023-04-26T01:29:18;99365.73;;;10.43;66.77
61805;BME280;47725;47.912;7.356;2023-04-26T01:33:18;99363.98;;;10.40;66.90
61805;BME280;47725;47.912;7.356;2023-04-26T01:37:18;99360.76;;;10.38;66.87
61805;BME280;47725;47.912;7.356;2023-04-26T01:41:18;99355.77;;;10.35;66.82
61805;BME280;47725;47.912;7.356;2023-04-26T01:45:18;99352.87;;;10.31;66.93
61805;BME280;47725;47.912;7.356;2023-04-26T01:49:18;99351.32;;;10.26;66.87
61805;BME280;47725;47.912;7.356;2023-04-26T01:53:18;99351.39;;;10.22;66.85
61805;BME280;47725;47.912;7.356;2023-04-26T01:57:18;99351.01;;;10.16;66.94
61805;BME280;47725;47.912;7.356;2023-04-26T02:01:18;99351.70;;;10.11;67.13
61805;BME280;47725;47.912;7.356;2023-04-26T02:05:18;99352.24;;;10.06;67.17
61805;BME280;47725;47.912;7.356;2023-04-26T02:09:18;99353.17;;;10.01;67.35
61805;BME280;47725;47.912;7.356;2023-04-26T02:13:18;99352.84;;;9.97;67.38
61805;BME280;47725;47.912;7.356;2023-04-26T02:17:18;99351.42;;;9.94;67.31
61805;BME280;47725;47.912;7.356;2023-04-26T02:21:18;99350.08;;;9.92;67.25
61805;BME280;47725;47.912;7.356;2023-04-26T02:25:18;99349.16;;;9.89;67.40
61805;BME280;47725;47.912;7.356;2023-04-26T02:29:18;99348.10;;;9.88;67.28
61805;BME280;47725;47.912;7.356;2023-04-26T02:33:18;99347.24;;;9.86;67.22
61805;BME280;47725;47.912;7.356;2023-04-26T02:37:18;99345.51;;;9.85;67.25
61805;BME280;47725;47.912;7.356;2023-04-26T02:41:17;99345.35;;;9.85;67.16
61805;BME280;47725;47.912;7.356;2023-04-26T02:45:17;99344.33;;;9.84;67.28
61805;BME280;47725;47.912;7.356;2023-04-26T02:49:17;99342.30;;;9.82;67.37
61805;BME280;47725;47.912;7.356;2023-04-26T02:53:17;99340.77;;;9.80;67.38
61805;BME280;47725;47.912;7.356;2023-04-26T02:57:17;99339.97;;;9.79;67.21
61805;BME280;47725;47.912;7.356;2023-04-26T03:01:17;99339.23;;;9.76;67.29
61805;BME280;47725;47.912;7.356;2023-04-26T03:05:17;99338.22;;;9.72;67.40
61805;BME280;47725;47.912;7.356;2023-04-26T03:09:17;99337.38;;;9.69;67.21
61805;BME280;47725;47.912;7.356;2023-04-26T03:13:17;99335.88;;;9.64;67.39
61805;BME280;47725;47.912;7.356;2023-04-26T03:17:17;99334.80;;;9.59;67.33
61805;BME280;47725;47.912;7.356;2023-04-26T03:21:17;99333.00;;;9.55;67.37
61805;BME280;47725;47.912;7.356;2023-04-26T03:25:17;99330.62;;;9.50;67.42
61805;BME280;47725;47.912;7.356;2023-04-26T03:29:17;99328.37;;;9.46;67.49
61805;BME280;47725;47.912;7.356;2023-04-26T03:33:17;99326.79;;;9.41;67.59
61805;BME280;47725;47.912;7.356;2023-04-26T03:37:17;99325.71;;;9.36;67.54
61805;BME280;47725;47.912;7.356;2023-04-26T03:41:17;99326.26;;;9.33;67.38
61805;BME280;47725;47.912;7.356;2023-04-26T03:45:17;99325.95;;;9.28;67.57
61805;BME280;47725;47.912;7.356;2023-04-26T03:49:17;99324.02;;;9.23;67.53
61805;BME280;47725;47.912;7.356;2023-04-26T03:53:17;99323.12;;;9.18;67.48
61805;BME280;47725;47.912;7.356;2023-04-26T03:57:17;99322.52;;;9.13;67.43
61805;BME280;47725;47.912;7.356;2023-04-26T04:01:17;99322.30;;;9.08;67.57
61805;BME280;47725;47.912;7.356;2023-04-26T04:05:17;99320.72;;;9.04;67.69
61805;BME280;47725;47.912;7.356;2023-04-26T04:09:17;99319.25;;;9.00;67.56
61805;BME280;47725;47.912;7.356;2023-04-26T04:13:17;99316.99;;;8.98;67.56
61805;BME280;47725;47.912;7.356;2023-04-26T04:17:18;99315.52;;;8.97;67.60
61805;BME280;47725;47.912;7.356;2023-04-26T04:21:17;99314.86;;;8.96;67.56
61805;BME280;47725;47.912;7.356;2023-04-26T04:25:17;99314.65;;;8.95;67.48
61805;BME280;47725;47.912;7.356;2023-04-26T04:29:17;99315.66;;;8.96;67.45
61805;BME280;47725;47.912;7.356;2023-04-26T04:33:17;99316.97;;;8.96;67.73
61805;BME280;47725;47.912;7.356;2023-04-26T04:37:17;99318.03;;;8.96;67.82
61805;BME280;47725;47.912;7.356;2023-04-26T04:41:18;99319.06;;;8.97;67.87
61805;BME280;47725;47.912;7.356;2023-04-26T04:45:18;99320.19;;;9.00;67.94
61805;BME280;47725;47.912;7.356;2023-04-26T04:49:17;99322.20;;;9.03;67.90
61805;BME280;47725;47.912;7.356;2023-04-26T04:53:17;99325.94;;;9.07;68.03
61805;BME280;47725;47.912;7.356;2023-04-26T04:57:17;99329.38;;;9.09;68.22
61805;BME280;47725;47.912;7.356;2023-04-26T05:01:17;99333.23;;;9.12;68.21
61805;BME280;47725;47.912;7.356;2023-04-26T05:05:18;99336.57;;;9.15;68.23
61805;BME280;47725;47.912;7.356;2023-04-26T05:09:17;99339.93;;;9.20;68.04
61805;BME280;47725;47.912;7.356;2023-04-26T05:13:17;99343.84;;;9.24;68.06
61805;BME280;47725;47.912;7.356;2023-04-26T05:17:17;99348.03;;;9.28;68.02
61805;BME280;47725;47.912;7.356;2023-04-26T05:21:17;99351.93;;;9.33;68.03
61805;BME280;47725;47.912;7.356;2023-04-26T05:25:17;99355.46;;;9.37;67.96
61805;BME280;47725;47.912;7.356;2023-04-26T05:29:17;99359.55;;;9.41;68.00
61805;BME280;47725;47.912;7.356;2023-04-26T05:33:17;99363.78;;;9.45;68.04
61805;BME280;47725;47.912;7.356;2023-04-26T05:37:17;99367.35;;;9.48;68.09
61805;BME280;47725;47.912;7.356;2023-04-26T05:41:17;99371.38;;;9.52;68.12
61805;BME280;47725;47.912;7.356;2023-04-26T05:45:17;99375.29;;;9.56;68.10
61805;BME280;47725;47.912;7.356;2023-04-26T05:49:17;99379.61;;;9.61;67.97
61805;BME280;47725;47.912;7.356;2023-04-26T05:53:17;99384.30;;;9.65;68.30
61805;BME280;47725;47.912;7.356;2023-04-26T05:57:17;99387.55;;;9.70;68.14
61805;BME280;47725;47.912;7.356;2023-04-26T06:01:17;99391.24;;;9.74;68.24
61805;BME280;47725;47.912;7.356;2023-04-26T06:05:18;99394.72;;;9.79;68.28
61805;BME280;47725;47.912;7.356;2023-04-26T06:09:17;99398.24;;;9.83;68.13
61805;BME280;47725;47.912;7.356;2023-04-26T06:13:17;99401.12;;;9.86;68.44
61805;BME280;47725;47.912;7.356;2023-04-26T06:17:17;99403.30;;;9.90;68.38
61805;BME280;47725;47.912;7.356;2023-04-26T06:21:17;99403.08;;;9.94;68.25
61805;BME280;47725;47.912;7.356;2023-04-26T06:25:17;99402.86;;;9.99;68.04
61805;BME280;47725;47.912;7.356;2023-04-26T06:29:17;99402.64;;;10.03;67.91
61805;BME280;47725;47.912;7.356;2023-04-26T06:33:17;99402.91;;;10.08;68.00
61805;BME280;47725;47.912;7.356;2023-04-26T06:37:17;99401.42;;;10.12;68.17
61805;BME280;47725;47.912;7.356;2023-04-26T06:41:17;99399.60;;;10.16;68.30
61805;BME280;47725;47.912;7.356;2023-04-26T06:45:17;99399.99;;;10.20;68.52
61805;BME280;47725;47.912;7.356;2023-04-26T06:49:17;99400.08;;;10.23;68.31
61805;BME280;47725;47.912;7.356;2023-04-26T06:53:17;99400.14;;;10.26;68.43
61805;BME280;47725;47.912;7.356;2023-04-26T06:57:17;99400.90;;;10.29;68.34
61805;BME280;47725;47.912;7.356;2023-04-26T07:01:17;99402.29;;;10.31;68.35
61805;BME280;47725;47.912;7.356;2023-04-26T07:05:17;99403.47;;;10.33;68.34
61805;BME280;47725;47.912;7.356;2023-04-26T07:09:17;99405.06;;;10.34;68.22
61805;BME280;47725;47.912;7.356;2023-04-26T07:13:17;99407.42;;;10.35;68.01
61805;BME280;47725;47.912;7.356;2023-04-26T07:17:17;99408.39;;;10.35;68.03
61805;BME280;47725;47.912;7.356;2023-04-26T07:21:17;99408.37;;;10.36;67.94
61805;BME280;47725;47.912;7.356;2023-04-26T07:25:17;99408.51;;;10.38;67.76
61805;BME280;47725;47.912;7.356;2023-04-26T07:29:17;99408.84;;;10.42;67.49
61805;BME280;47725;47.912;7.356;2023-04-26T07:33:17;99409.26;;;10.47;67.37
61805;BME280;47725;47.912;7.356;2023-04-26T07:37:17;99409.68;;;10.51;67.21
61805;BME280;47725;47.912;7.356;2023-04-26T07:41:17;99408.40;;;10.54;67.38
61805;BME280;47725;47.912;7.356;2023-04-26T07:45:17;99406.12;;;10.58;67.42
61805;BME280;47725;47.912;7.356;2023-04-26T07:49:17;99403.30;;;10.63;67.21
61805;BME280;47725;47.912;7.356;2023-04-26T07:53:17;99400.11;;;10.69;67.17
61805;BME280;47725;47.912;7.356;2023-04-26T07:57:17;99396.86;;;10.74;67.14
61805;BME280;47725;47.912;7.356;2023-04-26T08:01:17;99396.35;;;10.82;66.97
61805;BME280;47725;47.912;7.356;2023-04-26T08:05:17;99394.23;;;10.92;66.29
61805;BME280;47725;47.912;7.356;2023-04-26T08:09:17;99391.52;;;11.02;66.10
61805;BME280;47725;47.912;7.356;2023-04-26T08:13:17;99386.99;;;11.15;65.71
61805;BME280;47725;47.912;7.356;2023-04-26T08:17:17;99384.94;;;11.30;65.01
61805;BME280;47725;47.912;7.356;2023-04-26T08:21:17;99385.47;;;11.45;64.97
61805;BME280;47725;47.912;7.356;2023-04-26T08:25:17;99386.98;;;11.61;64.40
61805;BME280;47725;47.912;7.356;2023-04-26T08:29:17;99386.52;;;11.76;63.98
61805;BME280;47725;47.912;7.356;2023-04-26T08:33:17;99386.14;;;11.90;63.86
61805;BME280;47725;47.912;7.356;2023-04-26T08:37:17;99386.45;;;12.06;63.48
61805;BME280;47725;47.912;7.356;2023-04-26T08:41:19;99385.64;;;12.22;62.69
61805;BME280;47725;47.912;7.356;2023-04-26T08:45:18;99386.25;;;12.36;62.14
61805;BME280;47725;47.912;7.356;2023-04-26T08:49:38;99387.38;;;12.46;60.83
61805;BME280;47725;47.912;7.356;2023-04-26T08:53:17;99389.26;;;12.57;61.56
61805;BME280;47725;47.912;7.356;2023-04-26T08:57:17;99390.34;;;12.68;61.73
61805;BME280;47725;47.912;7.356;2023-04-26T09:01:17;99391.19;;;12.83;61.01
61805;BME280;47725;47.912;7.356;2023-04-26T09:05:18;99390.42;;;12.99;60.26
61805;BME280;47725;47.912;7.356;2023-04-26T09:09:17;99389.54;;;13.18;59.17
61805;BME280;47725;47.912;7.356;2023-04-26T09:13:17;99389.75;;;13.38;59.41
61805;BME280;47725;47.912;7.356;2023-04-26T09:21:17;99389.36;;;13.62;58.10
61805;BME280;47725;47.912;7.356;2023-04-26T09:25:18;99390.93;;;13.67;59.30
61805;BME280;47725;47.912;7.356;2023-04-26T09:29:17;99389.20;;;13.77;57.94
61805;BME280;47725;47.912;7.356;2023-04-26T09:33:17;99387.58;;;13.91;56.50
61805;BME280;47725;47.912;7.356;2023-04-26T09:37:17;99385.16;;;14.04;56.14
61805;BME280;47725;47.912;7.356;2023-04-26T09:41:17;99382.86;;;14.18;55.95
61805;BME280;47725;47.912;7.356;2023-04-26T09:45:17;99381.23;;;14.32;56.32
61805;BME280;47725;47.912;7.356;2023-04-26T09:49:17;99379.19;;;14.45;55.68
61805;BME280;47725;47.912;7.356;2023-04-26T09:53:23;99377.23;;;14.55;53.10
61805;BME280;47725;47.912;7.356;2023-04-26T09:57:17;99374.95;;;14.61;54.72
61805;BME280;47725;47.912;7.356;2023-04-26T10:01:17;99372.53;;;14.70;54.40
61805;BME280;47725;47.912;7.356;2023-04-26T10:05:17;99371.22;;;14.82;54.10
61805;BME280;47725;47.912;7.356;2023-04-26T10:09:19;99369.95;;;14.97;54.22
61805;BME280;47725;47.912;7.356;2023-04-26T10:13:17;99367.89;;;15.13;53.73
61805;BME280;47725;47.912;7.356;2023-04-26T10:17:17;99367.92;;;15.26;51.91
61805;BME280;47725;47.912;7.356;2023-04-26T10:21:26;99368.22;;;15.39;52.64
61805;BME280;47725;47.912;7.356;2023-04-26T10:25:17;99366.71;;;15.53;50.71
61805;BME280;47725;47.912;7.356;2023-04-26T10:29:17;99365.59;;;15.69;50.73
61805;BME280;47725;47.912;7.356;2023-04-26T10:33:17;99363.17;;;15.80;50.38
61805;BME280;47725;47.912;7.356;2023-04-26T10:37:17;99359.12;;;15.87;51.03
61805;BME280;47725;47.912;7.356;2023-04-26T10:41:26;99357.31;;;15.99;49.91
61805;BME280;47725;47.912;7.356;2023-04-26T10:45:26;99355.52;;;16.08;50.40
61805;BME280;47725;47.912;7.356;2023-04-26T10:49:20;99352.66;;;16.13;51.07
61805;BME280;47725;47.912;7.356;2023-04-26T10:53:17;99349.29;;;16.14;50.06
61805;BME280;47725;47.912;7.356;2023-04-26T10:57:17;99346.83;;;16.12;51.33
61805;BME280;47725;47.912;7.356;2023-04-26T11:01:17;99342.99;;;16.13;50.73
61805;BME280;47725;47.912;7.356;2023-04-26T11:13:17;99326.47;;;16.13;50.46
61805;BME280;47725;47.912;7.356;2023-04-26T11:17:17;99321.26;;;16.16;49.39
61805;BME280;47725;47.912;7.356;2023-04-26T11:21:18;99317.30;;;16.18;49.47
61805;BME280;47725;47.912;7.356;2023-04-26T11:25:17;99312.87;;;16.18;49.29
61805;BME280;47725;47.912;7.356;2023-04-26T11:29:17;99309.44;;;16.19;49.97
61805;BME280;47725;47.912;7.356;2023-04-26T11:33:18;99306.25;;;16.23;48.14
61805;BME280;47725;47.912;7.356;2023-04-26T11:37:17;99303.85;;;16.27;48.83
61805;BME280;47725;47.912;7.356;2023-04-26T11:41:17;99302.58;;;16.33;48.34
61805;BME280;47725;47.912;7.356;2023-04-26T11:45:17;99300.42;;;16.34;48.49
61805;BME280;47725;47.912;7.356;2023-04-26T11:49:17;99296.54;;;16.34;48.39
61805;BME280;47725;47.912;7.356;2023-04-26T11:53:17;99294.78;;;16.38;47.39
61805;BME280;47725;47.912;7.356;2023-04-26T11:57:17;99292.61;;;16.41;48.41
61805;BME280;47725;47.912;7.356;2023-04-26T12:01:20;99290.36;;;16.44;47.98
61805;BME280;47725;47.912;7.356;2023-04-26T12:05:21;99287.86;;;16.46;47.36
61805;BME280;47725;47.912;7.356;2023-04-26T12:09:21;99286.70;;;16.48;48.29
61805;BME280;47725;47.912;7.356;2023-04-26T12:13:17;99284.23;;;16.51;47.85
61805;BME280;47725;47.912;7.356;2023-04-26T12:17:17;99281.58;;;16.54;48.06
61805;BME280;47725;47.912;7.356;2023-04-26T12:21:17;99277.80;;;16.61;46.95
61805;BME280;47725;47.912;7.356;2023-04-26T12:25:17;99274.45;;;16.69;47.15
61805;BME280;47725;47.912;7.356;2023-04-26T12:29:17;99271.48;;;16.78;46.54
61805;BME280;47725;47.912;7.356;2023-04-26T12:33:17;99268.38;;;16.85;45.67
61805;BME280;47725;47.912;7.356;2023-04-26T12:37:17;99266.50;;;16.90;45.78
61805;BME280;47725;47.912;7.356;2023-04-26T12:41:17;99263.09;;;16.93;45.86
61805;BME280;47725;47.912;7.356;2023-04-26T12:45:17;99260.41;;;16.96;43.66
61805;BME280;47725;47.912;7.356;2023-04-26T12:49:17;99257.36;;;16.94;45.11
61805;BME280;47725;47.912;7.356;2023-04-26T12:53:17;99254.32;;;16.95;45.85
61805;BME280;47725;47.912;7.356;2023-04-26T12:57:18;99251.12;;;16.96;44.27
61805;BME280;47725;47.912;7.356;2023-04-26T13:01:17;99250.49;;;16.91;43.93
61805;BME280;47725;47.912;7.356;2023-04-26T13:05:17;99251.39;;;16.88;44.46
61805;BME280;47725;47.912;7.356;2023-04-26T13:09:17;99251.56;;;16.90;44.91
61805;BME280;47725;47.912;7.356;2023-04-26T13:13:17;99250.82;;;17.03;44.27
61805;BME280;47725;47.912;7.356;2023-04-26T13:17:17;99249.83;;;17.23;43.11
61805;BME280;47725;47.912;7.356;2023-04-26T13:21:17;99248.80;;;17.43;42.97
61805;BME280;47725;47.912;7.356;2023-04-26T13:25:17;99247.60;;;17.59;43.39
61805;BME280;47725;47.912;7.356;2023-04-26T13:29:17;99245.48;;;17.73;43.11
61805;BME280;47725;47.912;7.356;2023-04-26T13:33:17;99243.28;;;17.85;43.17
61805;BME280;47725;47.912;7.356;2023-04-26T13:37:17;99240.83;;;17.98;42.50
61805;BME280;47725;47.912;7.356;2023-04-26T13:41:17;99238.84;;;18.09;42.69
61805;BME280;47725;47.912;7.356;2023-04-26T13:45:17;99237.73;;;18.17;42.36
61805;BME280;47725;47.912;7.356;2023-04-26T13:49:17;99235.86;;;18.26;42.48
61805;BME280;47725;47.912;7.356;2023-04-26T13:53:17;99233.34;;;18.29;42.34
61805;BME280;47725;47.912;7.356;2023-04-26T13:57:17;99229.96;;;18.29;42.84
61805;BME280;47725;47.912;7.356;2023-04-26T14:01:17;99227.51;;;18.27;42.79
61805;BME280;47725;47.912;7.356;2023-04-26T14:05:17;99225.66;;;18.22;42.93
61805;BME280;47725;47.912;7.356;2023-04-26T14:09:17;99222.94;;;18.24;43.09
61805;BME280;47725;47.912;7.356;2023-04-26T14:13:17;99219.09;;;18.30;42.86
61805;BME280;47725;47.912;7.356;2023-04-26T14:17:17;99217.69;;;18.36;41.12
61805;BME280;47725;47.912;7.356;2023-04-26T14:21:17;99217.66;;;18.37;42.14
61805;BME280;47725;47.912;7.356;2023-04-26T14:25:17;99215.70;;;18.38;42.47
61805;BME280;47725;47.912;7.356;2023-04-26T14:29:17;99213.39;;;18.44;42.04
61805;BME280;47725;47.912;7.356;2023-04-26T14:33:17;99211.92;;;18.47;41.39
61805;BME280;47725;47.912;7.356;2023-04-26T14:37:17;99209.79;;;18.44;41.51
61805;BME280;47725;47.912;7.356;2023-04-26T14:41:17;99207.67;;;18.39;41.56
61805;BME280;47725;47.912;7.356;2023-04-26T14:45:17;99203.91;;;18.38;41.63
61805;BME280;47725;47.912;7.356;2023-04-26T14:49:17;99199.66;;;18.39;42.33
61805;BME280;47725;47.912;7.356;2023-04-26T14:53:17;99195.48;;;18.41;41.60
61805;BME280;47725;47.912;7.356;2023-04-26T14:57:17;99191.80;;;18.45;41.84
61805;BME280;47725;47.912;7.356;2023-04-26T15:01:17;99189.23;;;18.48;41.61
61805;BME280;47725;47.912;7.356;2023-04-26T15:05:17;99186.80;;;18.49;42.05
61805;BME280;47725;47.912;7.356;2023-04-26T15:09:17;99184.41;;;18.48;42.37
61805;BME280;47725;47.912;7.356;2023-04-26T15:13:17;99181.74;;;18.46;41.53
61805;BME280;47725;47.912;7.356;2023-04-26T15:17:17;99178.38;;;18.45;40.51
61805;BME280;47725;47.912;7.356;2023-04-26T15:21:17;99175.00;;;18.46;41.79
61805;BME280;47725;47.912;7.356;2023-04-26T15:25:17;99173.02;;;18.47;41.62
61805;BME280;47725;47.912;7.356;2023-04-26T15:29:17;99171.83;;;18.49;41.20
61805;BME280;47725;47.912;7.356;2023-04-26T15:33:17;99171.55;;;18.53;41.14
61805;BME280;47725;47.912;7.356;2023-04-26T15:37:17;99171.09;;;18.55;41.26
61805;BME280;47725;47.912;7.356;2023-04-26T15:41:17;99170.83;;;18.58;40.46
61805;BME280;47725;47.912;7.356;2023-04-26T15:45:17;99169.45;;;18.55;40.73
61805;BME280;47725;47.912;7.356;2023-04-26T15:49:17;99167.77;;;18.50;40.73
61805;BME280;47725;47.912;7.356;2023-04-26T15:53:17;99166.06;;;18.46;41.16
61805;BME280;47725;47.912;7.356;2023-04-26T15:57:17;99164.48;;;18.42;40.92
61805;BME280;47725;47.912;7.356;2023-04-26T16:01:17;99163.61;;;18.36;41.16
61805;BME280;47725;47.912;7.356;2023-04-26T16:05:17;99162.62;;;18.31;40.43
61805;BME280;47725;47.912;7.356;2023-04-26T16:09:17;99163.12;;;18.25;41.24
61805;BME280;47725;47.912;7.356;2023-04-26T16:13:16;99162.84;;;18.19;41.63
61805;BME280;47725;47.912;7.356;2023-04-26T16:17:16;99161.75;;;18.14;41.95
61805;BME280;47725;47.912;7.356;2023-04-26T16:21:16;99160.71;;;18.10;41.99
61805;BME280;47725;47.912;7.356;2023-04-26T16:25:16;99159.88;;;18.05;41.71
61805;BME280;47725;47.912;7.356;2023-04-26T16:29:16;99160.38;;;18.02;41.72
61805;BME280;47725;47.912;7.356;2023-04-26T16:33:16;99160.00;;;17.96;41.94
61805;BME280;47725;47.912;7.356;2023-04-26T16:37:16;99160.17;;;17.91;41.43
61805;BME280;47725;47.912;7.356;2023-04-26T16:41:16;99159.43;;;17.88;41.41
61805;BME280;47725;47.912;7.356;2023-04-26T16:45:17;99158.97;;;17.88;41.45
61805;BME280;47725;47.912;7.356;2023-04-26T16:49:16;99156.98;;;17.87;41.28
61805;BME280;47725;47.912;7.356;2023-04-26T16:53:16;99154.69;;;17.86;41.20
61805;BME280;47725;47.912;7.356;2023-04-26T16:57:16;99151.92;;;17.84;41.48
61805;BME280;47725;47.912;7.356;2023-04-26T17:01:16;99150.22;;;17.79;42.13
61805;BME280;47725;47.912;7.356;2023-04-26T17:05:17;99150.64;;;17.73;42.46
61805;BME280;47725;47.912;7.356;2023-04-26T17:09:16;99151.61;;;17.66;41.64
61805;BME280;47725;47.912;7.356;2023-04-26T17:13:16;99154.41;;;17.58;42.20
61805;BME280;47725;47.912;7.356;2023-04-26T17:17:16;99156.09;;;17.49;42.35
61805;BME280;47725;47.912;7.356;2023-04-26T17:21:16;99156.80;;;17.40;42.99
61805;BME280;47725;47.912;7.356;2023-04-26T17:25:17;99155.80;;;17.31;43.10
61805;BME280;47725;47.912;7.356;2023-04-26T17:29:16;99156.39;;;17.23;42.90
61805;BME280;47725;47.912;7.356;2023-04-26T17:33:16;99157.34;;;17.15;43.43
61805;BME280;47725;47.912;7.356;2023-04-26T17:37:16;99158.59;;;17.06;43.42
61805;BME280;47725;47.912;7.356;2023-04-26T17:41:16;99160.54;;;16.98;43.56
61805;BME280;47725;47.912;7.356;2023-04-26T17:45:16;99161.32;;;16.89;43.43
61805;BME280;47725;47.912;7.356;2023-04-26T17:49:16;99162.57;;;16.82;43.56
61805;BME280;47725;47.912;7.356;2023-04-26T17:53:16;99165.20;;;16.74;43.55
61805;BME280;47725;47.912;7.356;2023-04-26T17:57:16;99168.53;;;16.66;43.69
61805;BME280;47725;47.912;7.356;2023-04-26T18:01:16;99169.80;;;16.58;43.79
61805;BME280;47725;47.912;7.356;2023-04-26T18:05:16;99171.41;;;16.48;43.89
61805;BME280;47725;47.912;7.356;2023-04-26T18:09:16;99175.01;;;16.39;44.11
61805;BME280;47725;47.912;7.356;2023-04-26T18:13:16;99178.45;;;16.31;44.22
61805;BME280;47725;47.912;7.356;2023-04-26T18:17:16;99183.46;;;16.23;44.43
61805;BME280;47725;47.912;7.356;2023-04-26T18:21:16;99186.47;;;16.15;44.46
61805;BME280;47725;47.912;7.356;2023-04-26T18:25:17;99190.77;;;16.07;44.55
61805;BME280;47725;47.912;7.356;2023-04-26T18:29:16;99195.01;;;15.97;44.98
61805;BME280;47725;47.912;7.356;2023-04-26T18:33:16;99198.29;;;15.86;45.21
61805;BME280;47725;47.912;7.356;2023-04-26T18:37:16;99201.95;;;15.75;45.45
61805;BME280;47725;47.912;7.356;2023-04-26T18:41:16;99205.41;;;15.64;45.50
61805;BME280;47725;47.912;7.356;2023-04-26T18:45:17;99209.44;;;15.55;45.55
61805;BME280;47725;47.912;7.356;2023-04-26T18:49:16;99213.14;;;15.45;45.72
61805;BME280;47725;47.912;7.356;2023-04-26T18:53:16;99217.96;;;15.34;46.17
61805;BME280;47725;47.912;7.356;2023-04-26T18:57:16;99223.12;;;15.24;46.45
61805;BME280;47725;47.912;7.356;2023-04-26T19:01:16;99227.96;;;15.15;47.15
61805;BME280;47725;47.912;7.356;2023-04-26T19:05:16;99231.72;;;15.07;47.34
61805;BME280;47725;47.912;7.356;2023-04-26T19:09:16;99235.52;;;14.99;47.52
61805;BME280;47725;47.912;7.356;2023-04-26T19:13:16;99239.23;;;14.92;47.88
61805;BME280;47725;47.912;7.356;2023-04-26T19:17:16;99242.27;;;14.84;48.12
61805;BME280;47725;47.912;7.356;2023-04-26T19:21:16;99246.57;;;14.78;48.17
61805;BME280;47725;47.912;7.356;2023-04-26T19:25:16;99250.37;;;14.72;48.56
61805;BME280;47725;47.912;7.356;2023-04-26T19:29:16;99254.21;;;14.66;48.37
61805;BME280;47725;47.912;7.356;2023-04-26T19:33:16;99258.09;;;14.61;48.47
61805;BME280;47725;47.912;7.356;2023-04-26T19:37:16;99262.28;;;14.56;48.57
61805;BME280;47725;47.912;7.356;2023-04-26T19:41:16;99266.20;;;14.50;48.85
61805;BME280;47725;47.912;7.356;2023-04-26T19:45:16;99271.11;;;14.44;49.22
61805;BME280;47725;47.912;7.356;2023-04-26T19:49:16;99276.78;;;14.37;49.29
61805;BME280;47725;47.912;7.356;2023-04-26T19:53:16;99281.18;;;14.32;49.38
61805;BME280;47725;47.912;7.356;2023-04-26T19:57:16;99284.66;;;14.27;49.64
61805;BME280;47725;47.912;7.356;2023-04-26T20:01:16;99286.83;;;14.22;49.62
61805;BME280;47725;47.912;7.356;2023-04-26T20:05:16;99289.61;;;14.19;49.78
61805;BME280;47725;47.912;7.356;2023-04-26T20:09:16;99292.00;;;14.16;49.90
61805;BME280;47725;47.912;7.356;2023-04-26T20:13:16;99294.97;;;14.13;50.04
61805;BME280;47725;47.912;7.356;2023-04-26T20:17:16;99296.60;;;14.09;50.25
61805;BME280;47725;47.912;7.356;2023-04-26T20:21:16;99299.28;;;14.05;50.27
61805;BME280;47725;47.912;7.356;2023-04-26T20:25:16;99302.32;;;14.01;50.44
61805;BME280;47725;47.912;7.356;2023-04-26T20:29:16;99303.20;;;13.97;50.45
61805;BME280;47725;47.912;7.356;2023-04-26T20:33:16;99304.00;;;13.92;50.62
61805;BME280;47725;47.912;7.356;2023-04-26T20:37:16;99304.46;;;13.88;50.63
61805;BME280;47725;47.912;7.356;2023-04-26T20:41:16;99305.85;;;13.85;50.85
61805;BME280;47725;47.912;7.356;2023-04-26T20:45:16;99306.24;;;13.82;51.05
61805;BME280;47725;47.912;7.356;2023-04-26T20:49:16;99306.69;;;13.78;51.21
61805;BME280;47725;47.912;7.356;2023-04-26T20:53:16;99306.42;;;13.75;51.20
61805;BME280;47725;47.912;7.356;2023-04-26T20:57:16;99306.52;;;13.72;51.57
61805;BME280;47725;47.912;7.356;2023-04-26T21:01:16;99306.86;;;13.70;51.27
61805;BME280;47725;47.912;7.356;2023-04-26T21:05:16;99307.56;;;13.68;51.35
61805;BME280;47725;47.912;7.356;2023-04-26T21:09:16;99308.32;;;13.66;51.44
61805;BME280;47725;47.912;7.356;2023-04-26T21:13:16;99308.56;;;13.64;51.71
61805;BME280;47725;47.912;7.356;2023-04-26T21:17:16;99308.26;;;13.64;51.40
61805;BME280;47725;47.912;7.356;2023-04-26T21:21:16;99309.93;;;13.65;51.32
61805;BME280;47725;47.912;7.356;2023-04-26T21:25:16;99312.44;;;13.66;51.25